sensor_id;sensor_type;location;lat;lon;timestamp;pressure;altitude;pressure_sealevel;temperature;humidity
12213;BME280;6169;44.158;22.788;2023-06-26T00:00:12;100668.53;;;23.32;62.25
12213;BME280;6169;44.158;22.788;2023-06-26T00:05:15;100664.88;;;22.97;63.37
12213;BME280;6169;44.158;22.788;2023-06-26T00:10:17;100668.88;;;23.30;61.77
12213;BME280;6169;44.158;22.788;2023-06-26T00:15:19;100659.66;;;23.04;63.04
12213;BME280;6169;44.158;22.788;2023-06-26T00:20:22;100657.44;;;23.41;62.67
12213;BME280;6169;44.158;22.788;2023-06-26T00:25:25;100650.09;;;23.27;61.43
12213;BME280;6169;44.158;22.788;2023-06-26T00:30:27;100649.75;;;23.20;61.51
12213;BME280;6169;44.158;22.788;2023-06-26T00:35:30;100648.28;;;23.14;63.20
12213;BME280;6169;44.158;22.788;2023-06-26T00:40:32;100653.41;;;22.81;64.00
12213;BME280;6169;44.158;22.788;2023-06-26T00:45:34;100660.34;;;23.18;63.00
12213;BME280;6169;44.158;22.788;2023-06-26T00:50:37;100661.25;;;23.45;62.05
12213;BME280;6169;44.158;22.788;2023-06-26T00:55:39;100657.97;;;23.60;64.69
12213;BME280;6169;44.158;22.788;2023-06-26T01:00:41;100659.28;;;23.45;61.58
12213;BME280;6169;44.158;22.788;2023-06-26T01:05:48;100654.53;;;23.46;61.83
12213;BME280;6169;44.158;22.788;2023-06-26T01:10:51;100650.41;;;23.17;62.70
12213;BME280;6169;44.158;22.788;2023-06-26T01:15:53;100648.94;;;23.11;64.91
12213;BME280;6169;44.158;22.788;2023-06-26T01:20:56;100657.31;;;23.54;64.01
12213;BME280;6169;44.158;22.788;2023-06-26T01:26:11;100654.00;;;24.22;60.31
12213;BME280;6169;44.158;22.788;2023-06-26T01:31:13;100660.56;;;24.17;61.07
12213;BME280;6169;44.158;22.788;2023-06-26T01:36:15;100660.84;;;24.24;61.18
12213;BME280;6169;44.158;22.788;2023-06-26T01:41:19;100662.34;;;24.13;59.87
12213;BME280;6169;44.158;22.788;2023-06-26T01:46:22;100655.34;;;23.90;59.51
12213;BME280;6169;44.158;22.788;2023-06-26T01:51:27;100659.25;;;23.89;60.28
12213;BME280;6169;44.158;22.788;2023-06-26T01:56:33;100657.97;;;24.03;60.17
12213;BME280;6169;44.158;22.788;2023-06-26T02:01:35;100658.28;;;23.76;60.32
12213;BME280;6169;44.158;22.788;2023-06-26T02:06:37;100663.84;;;23.67;62.83
12213;BME280;6169;44.158;22.788;2023-06-26T02:11:40;100669.56;;;23.62;62.47
12213;BME280;6169;44.158;22.788;2023-06-26T02:16:42;100657.81;;;23.65;61.15
12213;BME280;6169;44.158;22.788;2023-06-26T02:21:43;100656.81;;;23.78;62.01
12213;BME280;6169;44.158;22.788;2023-06-26T02:26:47;100659.25;;;23.71;61.37
12213;BME280;6169;44.158;22.788;2023-06-26T02:31:49;100663.50;;;23.69;60.88
12213;BME280;6169;44.158;22.788;2023-06-26T02:36:51;100649.09;;;23.14;62.87
12213;BME280;6169;44.158;22.788;2023-06-26T02:41:56;100657.00;;;23.47;63.47
12213;BME280;6169;44.158;22.788;2023-06-26T02:46:58;100650.13;;;23.53;62.72
12213;BME280;6169;44.158;22.788;2023-06-26T02:52:00;100652.06;;;23.35;62.15
12213;BME280;6169;44.158;22.788;2023-06-26T02:57:03;100654.03;;;23.44;62.25
12213;BME280;6169;44.158;22.788;2023-06-26T03:02:05;100648.22;;;22.88;63.46
12213;BME280;6169;44.158;22.788;2023-06-26T03:07:07;100652.81;;;22.61;69.30
12213;BME280;6169;44.158;22.788;2023-06-26T03:12:10;100660.63;;;22.90;66.07
12213;BME280;6169;44.158;22.788;2023-06-26T03:17:12;100665.63;;;23.46;64.57
12213;BME280;6169;44.158;22.788;2023-06-26T03:22:14;100657.47;;;23.93;61.48
12213;BME280;6169;44.158;22.788;2023-06-26T03:27:17;100664.13;;;24.26;60.97
12213;BME280;6169;44.158;22.788;2023-06-26T03:32:19;100668.47;;;24.92;57.01
12213;BME280;6169;44.158;22.788;2023-06-26T03:37:21;100674.91;;;26.31;53.34
12213;BME280;6169;44.158;22.788;2023-06-26T03:42:25;100676.03;;;26.63;51.98
12213;BME280;6169;44.158;22.788;2023-06-26T03:47:26;100684.34;;;26.05;51.83
12213;BME280;6169;44.158;22.788;2023-06-26T03:52:28;100679.19;;;24.73;57.03
12213;BME280;6169;44.158;22.788;2023-06-26T03:57:32;100672.66;;;23.95;60.83
12213;BME280;6169;44.158;22.788;2023-06-26T04:02:34;100669.69;;;23.92;62.46
12213;BME280;6169;44.158;22.788;2023-06-26T04:07:36;100673.47;;;23.96;61.08
12213;BME280;6169;44.158;22.788;2023-06-26T04:12:40;100672.94;;;24.29;60.56
12213;BME280;6169;44.158;22.788;2023-06-26T04:17:42;100674.13;;;24.10;62.01
12213;BME280;6169;44.158;22.788;2023-06-26T04:22:44;100680.00;;;24.17;62.09
12213;BME280;6169;44.158;22.788;2023-06-26T04:27:47;100692.31;;;24.63;60.73
12213;BME280;6169;44.158;22.788;2023-06-26T04:32:49;100685.78;;;24.42;61.34
12213;BME280;6169;44.158;22.788;2023-06-26T04:37:51;100688.00;;;25.04;58.49
12213;BME280;6169;44.158;22.788;2023-06-26T04:42:54;100681.50;;;24.53;60.18
12213;BME280;6169;44.158;22.788;2023-06-26T04:47:56;100678.63;;;24.88;57.70
12213;BME280;6169;44.158;22.788;2023-06-26T04:52:58;100685.56;;;25.32;56.69
12213;BME280;6169;44.158;22.788;2023-06-26T04:58:01;100681.09;;;24.81;57.30
12213;BME280;6169;44.158;22.788;2023-06-26T05:03:03;100686.69;;;25.10;56.49
12213;BME280;6169;44.158;22.788;2023-06-26T05:08:14;100683.38;;;25.17;55.54
12213;BME280;6169;44.158;22.788;2023-06-26T05:13:18;100695.16;;;25.23;55.21
12213;BME280;6169;44.158;22.788;2023-06-26T05:18:20;100694.97;;;25.19;55.98
12213;BME280;6169;44.158;22.788;2023-06-26T05:23:21;100700.28;;;24.74;56.28
12213;BME280;6169;44.158;22.788;2023-06-26T05:28:28;100705.09;;;24.94;56.34
12213;BME280;6169;44.158;22.788;2023-06-26T05:33:31;100700.09;;;25.08;55.92
12213;BME280;6169;44.158;22.788;2023-06-26T05:38:36;100701.25;;;25.37;55.19
12213;BME280;6169;44.158;22.788;2023-06-26T05:43:40;100692.66;;;25.30;54.88
12213;BME280;6169;44.158;22.788;2023-06-26T05:48:41;100699.41;;;24.90;54.47
12213;BME280;6169;44.158;22.788;2023-06-26T05:53:43;100703.84;;;25.42;53.18
12213;BME280;6169;44.158;22.788;2023-06-26T05:58:47;100696.66;;;25.83;52.13
12213;BME280;6169;44.158;22.788;2023-06-26T06:03:49;100699.84;;;25.73;52.28
12213;BME280;6169;44.158;22.788;2023-06-26T06:08:51;100702.19;;;25.92;51.21
12213;BME280;6169;44.158;22.788;2023-06-26T06:13:54;100702.84;;;26.55;49.70
12213;BME280;6169;44.158;22.788;2023-06-26T06:18:56;100706.38;;;25.98;50.03
12213;BME280;6169;44.158;22.788;2023-06-26T06:23:58;100702.47;;;26.11;50.63
12213;BME280;6169;44.158;22.788;2023-06-26T06:29:02;100699.47;;;26.37;48.68
12213;BME280;6169;44.158;22.788;2023-06-26T06:34:04;100715.06;;;26.17;49.25
12213;BME280;6169;44.158;22.788;2023-06-26T06:39:06;100704.38;;;25.86;50.24
12213;BME280;6169;44.158;22.788;2023-06-26T06:44:10;100709.22;;;26.10;48.72
12213;BME280;6169;44.158;22.788;2023-06-26T06:49:11;100696.03;;;26.89;47.20
12213;BME280;6169;44.158;22.788;2023-06-26T06:54:15;100704.28;;;27.35;46.87
12213;BME280;6169;44.158;22.788;2023-06-26T06:59:18;100704.84;;;27.41;45.90
12213;BME280;6169;44.158;22.788;2023-06-26T07:04:20;100706.81;;;26.66;47.65
12213;BME280;6169;44.158;22.788;2023-06-26T07:09:22;100704.16;;;27.56;45.81
12213;BME280;6169;44.158;22.788;2023-06-26T07:14:25;100719.63;;;27.29;45.17
12213;BME280;6169;44.158;22.788;2023-06-26T07:19:27;100715.03;;;27.73;45.14
12213;BME280;6169;44.158;22.788;2023-06-26T07:24:29;100716.94;;;27.57;44.32
12213;BME280;6169;44.158;22.788;2023-06-26T07:29:32;100722.44;;;27.41;44.78
12213;BME280;6169;44.158;22.788;2023-06-26T07:34:34;100718.13;;;27.56;44.11
12213;BME280;6169;44.158;22.788;2023-06-26T07:39:35;100715.13;;;27.77;43.62
12213;BME280;6169;44.158;22.788;2023-06-26T07:44:39;100721.50;;;27.90;43.51
12213;BME280;6169;44.158;22.788;2023-06-26T07:49:41;100722.75;;;28.04;44.37
12213;BME280;6169;44.158;22.788;2023-06-26T07:54:42;100721.00;;;28.00;44.43
12213;BME280;6169;44.158;22.788;2023-06-26T07:59:46;100725.75;;;29.03;40.30
12213;BME280;6169;44.158;22.788;2023-06-26T08:04:47;100715.59;;;28.79;42.84
12213;BME280;6169;44.158;22.788;2023-06-26T08:09:49;100723.97;;;29.46;39.77
12213;BME280;6169;44.158;22.788;2023-06-26T08:14:53;100720.56;;;29.37;38.98
12213;BME280;6169;44.158;22.788;2023-06-26T08:19:54;100725.34;;;29.52;39.10
12213;BME280;6169;44.158;22.788;2023-06-26T08:24:56;100729.88;;;29.76;38.35
12213;BME280;6169;44.158;22.788;2023-06-26T08:30:00;100722.41;;;29.65;39.53
12213;BME280;6169;44.158;22.788;2023-06-26T08:35:02;100718.44;;;30.47;38.00
12213;BME280;6169;44.158;22.788;2023-06-26T08:40:04;100603.34;;;29.00;38.82
12213;BME280;6169;44.158;22.788;2023-06-26T08:45:08;100716.97;;;29.36;39.28
12213;BME280;6169;44.158;22.788;2023-06-26T08:50:10;100723.66;;;29.32;37.81
12213;BME280;6169;44.158;22.788;2023-06-26T08:55:14;100724.63;;;29.55;38.15
12213;BME280;6169;44.158;22.788;2023-06-26T09:00:19;100723.53;;;29.99;37.91
12213;BME280;6169;44.158;22.788;2023-06-26T09:05:21;100730.66;;;29.96;39.14
12213;BME280;6169;44.158;22.788;2023-06-26T09:16:11;100717.69;;;30.69;34.42
12213;BME280;6169;44.158;22.788;2023-06-26T09:21:13;100716.44;;;30.47;36.18
12213;BME280;6169;44.158;22.788;2023-06-26T09:26:15;100712.03;;;30.92;35.09
12213;BME280;6169;44.158;22.788;2023-06-26T09:31:19;100710.94;;;30.74;35.25
12213;BME280;6169;44.158;22.788;2023-06-26T09:36:21;100704.97;;;30.33;35.37
12213;BME280;6169;44.158;22.788;2023-06-26T09:41:25;100708.19;;;30.55;35.26
12213;BME280;6169;44.158;22.788;2023-06-26T09:46:28;100705.19;;;31.13;33.83
12213;BME280;6169;44.158;22.788;2023-06-26T09:51:30;100705.16;;;30.63;32.59
12213;BME280;6169;44.158;22.788;2023-06-26T09:56:33;100705.78;;;30.76;34.17
12213;BME280;6169;44.158;22.788;2023-06-26T10:01:39;100691.53;;;31.42;34.85
12213;BME280;6169;44.158;22.788;2023-06-26T10:06:42;100693.28;;;30.97;33.32
12213;BME280;6169;44.158;22.788;2023-06-26T10:11:48;100688.44;;;31.50;31.66
12213;BME280;6169;44.158;22.788;2023-06-26T10:16:52;100690.06;;;32.56;32.35
12213;BME280;6169;44.158;22.788;2023-06-26T10:21:58;100683.00;;;31.34;33.96
12213;BME280;6169;44.158;22.788;2023-06-26T10:27:02;100682.25;;;31.38;33.83
12213;BME280;6169;44.158;22.788;2023-06-26T10:32:07;100691.59;;;31.75;32.13
12213;BME280;6169;44.158;22.788;2023-06-26T10:37:10;100679.19;;;31.20;32.62
12213;BME280;6169;44.158;22.788;2023-06-26T10:42:13;100677.84;;;32.00;33.23
12213;BME280;6169;44.158;22.788;2023-06-26T10:47:32;100671.78;;;31.98;31.98
12213;BME280;6169;44.158;22.788;2023-06-26T10:52:36;100671.06;;;32.42;32.16
12213;BME280;6169;44.158;22.788;2023-06-26T10:57:38;100669.38;;;31.33;32.27
12213;BME280;6169;44.158;22.788;2023-06-26T11:02:50;100665.28;;;31.91;31.99
12213;BME280;6169;44.158;22.788;2023-06-26T11:08:05;100667.19;;;31.83;31.01
12213;BME280;6169;44.158;22.788;2023-06-26T11:13:08;100653.81;;;32.03;30.51
12213;BME280;6169;44.158;22.788;2023-06-26T11:18:14;100654.03;;;31.91;29.70
12213;BME280;6169;44.158;22.788;2023-06-26T11:23:16;100643.88;;;31.79;31.46
12213;BME280;6169;44.158;22.788;2023-06-26T11:28:22;100640.09;;;31.64;31.34
12213;BME280;6169;44.158;22.788;2023-06-26T11:33:26;100634.72;;;33.37;28.74
12213;BME280;6169;44.158;22.788;2023-06-26T11:38:28;100636.56;;;31.74;31.43
12213;BME280;6169;44.158;22.788;2023-06-26T11:43:38;100630.63;;;31.79;32.41
12213;BME280;6169;44.158;22.788;2023-06-26T11:48:43;100632.47;;;32.43;29.30
12213;BME280;6169;44.158;22.788;2023-06-26T11:53:45;100626.69;;;32.73;29.89
12213;BME280;6169;44.158;22.788;2023-06-26T11:58:58;100629.69;;;32.02;30.90
12213;BME280;6169;44.158;22.788;2023-06-26T12:04:03;100639.31;;;32.94;29.43
12213;BME280;6169;44.158;22.788;2023-06-26T12:09:06;100633.13;;;31.88;30.20
12213;BME280;6169;44.158;22.788;2023-06-26T12:14:10;100633.97;;;32.81;29.19
12213;BME280;6169;44.158;22.788;2023-06-26T12:19:13;100643.81;;;32.50;29.88
12213;BME280;6169;44.158;22.788;2023-06-26T12:24:16;100640.94;;;32.95;29.50
12213;BME280;6169;44.158;22.788;2023-06-26T12:29:19;100643.22;;;32.78;29.07
12213;BME280;6169;44.158;22.788;2023-06-26T12:34:25;100645.13;;;32.22;29.66
12213;BME280;6169;44.158;22.788;2023-06-26T12:39:27;100633.72;;;32.05;30.75
12213;BME280;6169;44.158;22.788;2023-06-26T12:44:29;100645.66;;;30.54;33.13
12213;BME280;6169;44.158;22.788;2023-06-26T12:49:34;100637.00;;;30.89;33.31
12213;BME280;6169;44.158;22.788;2023-06-26T12:54:38;100651.59;;;30.49;34.90
12213;BME280;6169;44.158;22.788;2023-06-26T12:59:40;100649.31;;;30.81;33.67
12213;BME280;6169;44.158;22.788;2023-06-26T13:04:43;100654.34;;;31.82;31.65
12213;BME280;6169;44.158;22.788;2023-06-26T13:09:45;100649.28;;;31.95;30.53
12213;BME280;6169;44.158;22.788;2023-06-26T13:14:48;100645.69;;;32.39;30.80
12213;BME280;6169;44.158;22.788;2023-06-26T13:19:51;100647.91;;;32.19;30.36
12213;BME280;6169;44.158;22.788;2023-06-26T13:24:53;100646.03;;;32.34;29.64
12213;BME280;6169;44.158;22.788;2023-06-26T13:29:55;100644.53;;;32.43;30.33
12213;BME280;6169;44.158;22.788;2023-06-26T13:34:58;100641.63;;;32.33;31.38
12213;BME280;6169;44.158;22.788;2023-06-26T13:40:00;100632.38;;;30.74;30.33
12213;BME280;6169;44.158;22.788;2023-06-26T13:45:03;100642.13;;;31.67;29.85
12213;BME280;6169;44.158;22.788;2023-06-26T13:50:07;100628.75;;;31.94;29.46
12213;BME280;6169;44.158;22.788;2023-06-26T13:55:09;100619.13;;;31.92;28.75
12213;BME280;6169;44.158;22.788;2023-06-26T14:00:11;100626.16;;;31.75;29.10
12213;BME280;6169;44.158;22.788;2023-06-26T14:05:16;100621.22;;;32.43;28.91
12213;BME280;6169;44.158;22.788;2023-06-26T14:10:18;100612.03;;;31.68;30.11
12213;BME280;6169;44.158;22.788;2023-06-26T14:15:20;100620.09;;;31.69;29.81
12213;BME280;6169;44.158;22.788;2023-06-26T14:20:24;100608.69;;;31.92;28.89
12213;BME280;6169;44.158;22.788;2023-06-26T14:25:25;100626.28;;;32.23;29.50
12213;BME280;6169;44.158;22.788;2023-06-26T14:30:28;100618.69;;;31.90;28.94
12213;BME280;6169;44.158;22.788;2023-06-26T14:35:31;100612.47;;;30.83;30.54
12213;BME280;6169;44.158;22.788;2023-06-26T14:40:33;100603.34;;;30.89;30.52
12213;BME280;6169;44.158;22.788;2023-06-26T14:45:35;100607.94;;;31.31;30.95
12213;BME280;6169;44.158;22.788;2023-06-26T14:50:39;100600.09;;;31.78;29.57
12213;BME280;6169;44.158;22.788;2023-06-26T14:55:40;100601.56;;;31.34;29.27
12213;BME280;6169;44.158;22.788;2023-06-26T15:00:42;100612.28;;;31.25;29.90
12213;BME280;6169;44.158;22.788;2023-06-26T15:05:46;100607.09;;;31.01;29.57
12213;BME280;6169;44.158;22.788;2023-06-26T15:10:48;100591.63;;;32.12;28.88
12213;BME280;6169;44.158;22.788;2023-06-26T15:15:49;100596.72;;;31.62;29.01
12213;BME280;6169;44.158;22.788;2023-06-26T15:20:53;100581.72;;;30.63;29.71
12213;BME280;6169;44.158;22.788;2023-06-26T15:25:54;100585.38;;;30.44;29.38
12213;BME280;6169;44.158;22.788;2023-06-26T15:30:56;100589.38;;;29.97;29.91
12213;BME280;6169;44.158;22.788;2023-06-26T15:36:00;100587.88;;;30.23;30.19
12213;BME280;6169;44.158;22.788;2023-06-26T15:41:03;100585.38;;;30.44;29.75
12213;BME280;6169;44.158;22.788;2023-06-26T15:46:05;100583.47;;;30.48;30.28
12213;BME280;6169;44.158;22.788;2023-06-26T15:51:09;100583.81;;;30.70;29.52
12213;BME280;6169;44.158;22.788;2023-06-26T15:56:14;100581.06;;;31.30;29.39
12213;BME280;6169;44.158;22.788;2023-06-26T16:01:16;100586.91;;;30.88;29.76
12213;BME280;6169;44.158;22.788;2023-06-26T16:06:19;100579.84;;;31.28;29.43
12213;BME280;6169;44.158;22.788;2023-06-26T16:11:21;100567.63;;;31.47;28.87
12213;BME280;6169;44.158;22.788;2023-06-26T16:16:23;100580.38;;;31.74;29.64
12213;BME280;6169;44.158;22.788;2023-06-26T16:21:26;100583.69;;;31.16;30.10
12213;BME280;6169;44.158;22.788;2023-06-26T16:26:28;100582.03;;;31.45;29.50
12213;BME280;6169;44.158;22.788;2023-06-26T16:31:29;100578.59;;;31.55;29.69
12213;BME280;6169;44.158;22.788;2023-06-26T16:36:33;100585.25;;;31.44;30.40
12213;BME280;6169;44.158;22.788;2023-06-26T16:41:34;100583.25;;;31.44;30.11
12213;BME280;6169;44.158;22.788;2023-06-26T16:46:36;100587.97;;;31.70;30.07
12213;BME280;6169;44.158;22.788;2023-06-26T16:51:39;100591.13;;;31.35;30.53
12213;BME280;6169;44.158;22.788;2023-06-26T16:56:41;100597.50;;;31.62;31.07
12213;BME280;6169;44.158;22.788;2023-06-26T17:01:43;100591.53;;;31.33;31.11
12213;BME280;6169;44.158;22.788;2023-06-26T17:06:46;100604.44;;;31.72;30.93
12213;BME280;6169;44.158;22.788;2023-06-26T17:11:48;100600.44;;;31.39;31.38
12213;BME280;6169;44.158;22.788;2023-06-26T17:16:50;100596.56;;;30.90;32.72
12213;BME280;6169;44.158;22.788;2023-06-26T17:21:53;100597.13;;;31.03;32.09
12213;BME280;6169;44.158;22.788;2023-06-26T17:27:06;100600.06;;;30.57;32.89
12213;BME280;6169;44.158;22.788;2023-06-26T17:32:08;100606.16;;;30.63;33.18
12213;BME280;6169;44.158;22.788;2023-06-26T17:37:12;100603.66;;;30.58;32.62
12213;BME280;6169;44.158;22.788;2023-06-26T17:42:14;100605.03;;;30.44;33.39
12213;BME280;6169;44.158;22.788;2023-06-26T17:47:16;100621.41;;;29.77;34.24
12213;BME280;6169;44.158;22.788;2023-06-26T17:52:19;100616.19;;;29.75;34.32
12213;BME280;6169;44.158;22.788;2023-06-26T17:57:21;100622.75;;;29.44;34.84
12213;BME280;6169;44.158;22.788;2023-06-26T18:02:23;100632.28;;;29.24;35.19
12213;BME280;6169;44.158;22.788;2023-06-26T18:07:27;100642.47;;;28.97;35.80
12213;BME280;6169;44.158;22.788;2023-06-26T18:12:29;100643.22;;;28.62;36.48
12213;BME280;6169;44.158;22.788;2023-06-26T18:17:31;100649.94;;;28.92;36.56
12213;BME280;6169;44.158;22.788;2023-06-26T18:22:34;100659.84;;;28.70;37.45
12213;BME280;6169;44.158;22.788;2023-06-26T18:27:37;100667.38;;;28.70;37.70
12213;BME280;6169;44.158;22.788;2023-06-26T18:32:41;100664.84;;;28.97;38.65
12213;BME280;6169;44.158;22.788;2023-06-26T18:37:44;100668.56;;;28.85;39.97
12213;BME280;6169;44.158;22.788;2023-06-26T18:42:46;100677.09;;;28.29;41.13
12213;BME280;6169;44.158;22.788;2023-06-26T18:47:48;100688.78;;;27.90;42.38
12213;BME280;6169;44.158;22.788;2023-06-26T18:52:54;100702.19;;;27.85;42.24
12213;BME280;6169;44.158;22.788;2023-06-26T18:57:56;100711.53;;;27.76;42.47
12213;BME280;6169;44.158;22.788;2023-06-26T19:02:58;100711.72;;;27.55;42.23
12213;BME280;6169;44.158;22.788;2023-06-26T19:08:02;100710.19;;;26.84;42.48
12213;BME280;6169;44.158;22.788;2023-06-26T19:13:04;100711.94;;;26.89;42.57
12213;BME280;6169;44.158;22.788;2023-06-26T19:18:07;100727.78;;;26.39;43.63
12213;BME280;6169;44.158;22.788;2023-06-26T19:23:11;100731.03;;;26.41;43.55
12213;BME280;6169;44.158;22.788;2023-06-26T19:28:14;100746.31;;;26.23;43.79
12213;BME280;6169;44.158;22.788;2023-06-26T19:33:16;100741.75;;;26.52;42.78
12213;BME280;6169;44.158;22.788;2023-06-26T19:38:20;100743.41;;;26.65;43.46
12213;BME280;6169;44.158;22.788;2023-06-26T19:43:21;100741.25;;;26.95;42.57
12213;BME280;6169;44.158;22.788;2023-06-26T19:48:23;100745.47;;;27.13;42.62
12213;BME280;6169;44.158;22.788;2023-06-26T19:53:27;100754.75;;;27.18;43.09
12213;BME280;6169;44.158;22.788;2023-06-26T19:58:29;100754.41;;;26.95;43.22
12213;BME280;6169;44.158;22.788;2023-06-26T20:03:31;100755.09;;;26.46;43.83
12213;BME280;6169;44.158;22.788;2023-06-26T20:08:34;100744.78;;;26.59;43.65
12213;BME280;6169;44.158;22.788;2023-06-26T20:13:36;100745.84;;;26.54;44.24
12213;BME280;6169;44.158;22.788;2023-06-26T20:18:38;100748.63;;;26.33;43.22
12213;BME280;6169;44.158;22.788;2023-06-26T20:23:42;100749.09;;;26.02;43.81
12213;BME280;6169;44.158;22.788;2023-06-26T20:28:44;100745.16;;;25.82;45.14
12213;BME280;6169;44.158;22.788;2023-06-26T20:33:46;100748.78;;;26.03;44.34
12213;BME280;6169;44.158;22.788;2023-06-26T20:38:49;100749.31;;;26.30;43.55
12213;BME280;6169;44.158;22.788;2023-06-26T20:43:51;100752.25;;;26.00;43.98
12213;BME280;6169;44.158;22.788;2023-06-26T20:48:54;100761.81;;;25.91;43.62
12213;BME280;6169;44.158;22.788;2023-06-26T20:53:57;100762.03;;;25.77;44.93
12213;BME280;6169;44.158;22.788;2023-06-26T20:58:59;100759.94;;;25.23;46.07
12213;BME280;6169;44.158;22.788;2023-06-26T21:04:01;100761.22;;;25.55;43.60
12213;BME280;6169;44.158;22.788;2023-06-26T21:09:04;100769.78;;;25.71;45.85
12213;BME280;6169;44.158;22.788;2023-06-26T21:14:06;100764.50;;;25.78;46.15
12213;BME280;6169;44.158;22.788;2023-06-26T21:19:08;100776.75;;;25.35;46.29
12213;BME280;6169;44.158;22.788;2023-06-26T21:24:11;100785.34;;;25.04;46.55
12213;BME280;6169;44.158;22.788;2023-06-26T21:29:13;100773.94;;;24.97;46.49
12213;BME280;6169;44.158;22.788;2023-06-26T21:34:15;100776.81;;;24.71;46.93
12213;BME280;6169;44.158;22.788;2023-06-26T21:39:18;100771.75;;;24.64;47.44
12213;BME280;6169;44.158;22.788;2023-06-26T21:44:20;100773.59;;;24.99;47.04
12213;BME280;6169;44.158;22.788;2023-06-26T21:49:22;100780.06;;;25.20;46.33
12213;BME280;6169;44.158;22.788;2023-06-26T21:54:25;100784.34;;;25.09;49.30
12213;BME280;6169;44.158;22.788;2023-06-26T21:59:27;100791.84;;;25.26;48.97
12213;BME280;6169;44.158;22.788;2023-06-26T22:04:29;100786.97;;;25.44;48.19
12213;BME280;6169;44.158;22.788;2023-06-26T22:09:32;100784.81;;;25.49;49.65
12213;BME280;6169;44.158;22.788;2023-06-26T22:14:34;100786.56;;;25.33;47.93
12213;BME280;6169;44.158;22.788;2023-06-26T22:19:36;100787.25;;;25.30;48.18
12213;BME280;6169;44.158;22.788;2023-06-26T22:24:39;100789.84;;;24.88;47.54
12213;BME280;6169;44.158;22.788;2023-06-26T22:29:41;100776.34;;;24.52;48.39
12213;BME280;6169;44.158;22.788;2023-06-26T22:34:43;100779.47;;;24.24;49.91
12213;BME280;6169;44.158;22.788;2023-06-26T22:39:47;100775.91;;;24.15;50.67
12213;BME280;6169;44.158;22.788;2023-06-26T22:44:48;100784.16;;;24.76;49.48
12213;BME280;6169;44.158;22.788;2023-06-26T22:49:50;100788.63;;;24.33;51.62
12213;BME280;6169;44.158;22.788;2023-06-26T22:54:54;100791.06;;;24.43;49.46
12213;BME280;6169;44.158;22.788;2023-06-26T22:59:56;100777.03;;;24.05;50.89
12213;BME280;6169;44.158;22.788;2023-06-26T23:04:58;100777.34;;;23.95;51.15
12213;BME280;6169;44.158;22.788;2023-06-26T23:10:01;100770.47;;;24.01;50.09
12213;BME280;6169;44.158;22.788;2023-06-26T23:15:03;100771.47;;;24.22;49.47
12213;BME280;6169;44.158;22.788;2023-06-26T23:20:05;100772.28;;;24.14;51.38
12213;BME280;6169;44.158;22.788;2023-06-26T23:25:09;100769.16;;;23.72;52.25
12213;BME280;6169;44.158;22.788;2023-06-26T23:30:11;100782.66;;;23.56;50.10
12213;BME280;6169;44.158;22.788;2023-06-26T23:35:13;100766.84;;;23.08;52.56
12213;BME280;6169;44.158;22.788;2023-06-26T23:40:17;100773.38;;;23.52;53.97
12213;BME280;6169;44.158;22.788;2023-06-26T23:45:18;100777.66;;;23.93;51.29
12213;BME280;6169;44.158;22.788;2023-06-26T23:50:21;100764.56;;;23.76;51.08
12213;BME280;6169;44.158;22.788;2023-06-26T23:55:24;100776.63;;;23.54;49.37
